createdAt,value
2018-09-30T00:00:56.971Z,100694.00
2018-09-30T00:05:59.968Z,100686.00
2018-09-30T00:11:03.085Z,100679.00
2018-09-30T00:16:06.132Z,100681.00
2018-09-30T00:21:09.226Z,100672.00
2018-09-30T00:26:18.047Z,100680.00
2018-09-30T00:31:21.062Z,100672.00
2018-09-30T00:36:24.236Z,100664.00
2018-09-30T00:41:27.363Z,100672.00
2018-09-30T00:46:30.388Z,100660.00
2018-09-30T00:51:33.419Z,100658.00
2018-09-30T00:56:36.579Z,100657.00
2018-09-30T01:01:39.731Z,100657.00
2018-09-30T01:06:42.717Z,100648.00
2018-09-30T01:11:45.699Z,100644.00
2018-09-30T01:16:48.702Z,100643.00
2018-09-30T01:21:51.779Z,100628.00
2018-09-30T01:26:54.823Z,100631.00
2018-09-30T01:31:57.821Z,100631.00
2018-09-30T01:37:00.842Z,100624.00
2018-09-30T01:42:04.124Z,100622.00
2018-09-30T01:47:07.209Z,100615.00
2018-09-30T01:52:56.165Z,100622.00
2018-09-30T01:57:59.335Z,100621.00
2018-09-30T02:03:02.320Z,100617.00
2018-09-30T02:08:05.405Z,100616.00
2018-09-30T02:13:08.424Z,100613.00
2018-09-30T02:18:11.386Z,100612.00
2018-09-30T02:23:14.359Z,100601.00
2018-09-30T02:28:17.411Z,100594.00
2018-09-30T02:33:20.475Z,100573.00
2018-09-30T02:38:23.471Z,100577.00
2018-09-30T02:43:26.472Z,100577.00
2018-09-30T02:48:29.464Z,100578.00
2018-09-30T02:53:32.479Z,100577.00
2018-09-30T02:58:35.463Z,100570.00
2018-09-30T03:03:38.612Z,100558.00
2018-09-30T03:08:47.230Z,100547.00
2018-09-30T03:13:50.423Z,100541.00
2018-09-30T03:18:53.518Z,100539.00
2018-09-30T03:23:56.729Z,100526.00
2018-09-30T03:28:59.844Z,100518.00
2018-09-30T03:34:03.060Z,100511.00
2018-09-30T03:39:08.002Z,100502.00
2018-09-30T03:44:11.073Z,100493.00
2018-09-30T03:49:14.211Z,100501.00
2018-09-30T03:54:17.261Z,100494.00
2018-09-30T03:59:20.255Z,100495.00
2018-09-30T04:04:23.272Z,100500.00
2018-09-30T04:09:26.334Z,100491.00
2018-09-30T04:14:29.264Z,100491.00
2018-09-30T04:19:32.263Z,100483.00
2018-09-30T04:24:35.468Z,100489.00
2018-09-30T04:29:38.461Z,100476.00
2018-09-30T04:34:41.509Z,100472.00
2018-09-30T04:39:44.509Z,100474.00
2018-09-30T04:44:47.474Z,100478.00
2018-09-30T04:49:50.472Z,100464.00
2018-09-30T04:54:53.443Z,100469.00
2018-09-30T04:59:56.411Z,100477.00
2018-09-30T05:04:59.415Z,100469.00
2018-09-30T05:10:02.530Z,100476.00
2018-09-30T05:15:05.617Z,100473.00
2018-09-30T05:20:08.666Z,100470.00
2018-09-30T05:25:11.649Z,100474.00
2018-09-30T05:30:14.756Z,100469.00
2018-09-30T05:35:17.784Z,100466.00
2018-09-30T05:40:20.804Z,100469.00
2018-09-30T05:45:23.792Z,100466.00
2018-09-30T05:50:26.837Z,100466.00
2018-09-30T05:55:29.824Z,100459.00
2018-09-30T06:00:32.913Z,100474.00
2018-09-30T06:05:35.953Z,100472.00
2018-09-30T06:10:38.994Z,100481.00
2018-09-30T06:15:42.052Z,100480.00
2018-09-30T06:20:45.153Z,100478.00
2018-09-30T06:25:48.283Z,100482.00
2018-09-30T06:30:51.360Z,100474.00
2018-09-30T06:35:54.382Z,100475.00
2018-09-30T06:40:57.380Z,100496.00
2018-09-30T06:46:00.506Z,100493.00
2018-09-30T06:51:03.608Z,100516.00
2018-09-30T06:56:06.540Z,100513.00
2018-09-30T07:01:09.551Z,100499.00
2018-09-30T07:06:12.728Z,100523.00
2018-09-30T07:11:15.950Z,100510.00
2018-09-30T07:16:19.038Z,100507.00
2018-09-30T07:21:22.367Z,100504.00
2018-09-30T07:26:25.593Z,100497.00
2018-09-30T07:31:29.324Z,100500.00
2018-09-30T07:36:32.376Z,100485.00
2018-09-30T07:41:35.716Z,100490.00
2018-09-30T07:46:38.839Z,100480.00
2018-09-30T07:51:41.857Z,100474.00
2018-09-30T07:56:44.911Z,100475.00
2018-09-30T08:01:47.988Z,100477.00
2018-09-30T08:06:51.364Z,100454.00
2018-09-30T08:11:54.433Z,100457.00
2018-09-30T08:16:57.535Z,100466.00
2018-09-30T08:22:00.855Z,100470.00
2018-09-30T08:27:03.917Z,100468.00
2018-09-30T08:32:07.075Z,100464.00
2018-09-30T08:37:10.266Z,100459.00
2018-09-30T08:42:13.427Z,100473.00
2018-09-30T08:47:16.502Z,100453.00
2018-09-30T08:52:19.607Z,100444.00
2018-09-30T08:57:22.712Z,100441.00
2018-09-30T09:02:26.014Z,100447.00
2018-09-30T09:07:29.057Z,100446.00
2018-09-30T09:12:32.170Z,100447.00
2018-09-30T09:17:35.403Z,100449.00
2018-09-30T09:22:38.457Z,100430.00
2018-09-30T09:27:41.734Z,100431.00
2018-09-30T09:32:45.092Z,100414.00
2018-09-30T09:37:48.203Z,100415.00
2018-09-30T09:42:51.258Z,100417.00
2018-09-30T09:47:54.405Z,100423.00
2018-09-30T09:52:57.465Z,100415.00
2018-09-30T09:58:00.451Z,100427.00
2018-09-30T10:03:03.507Z,100419.00
2018-09-30T10:08:07.947Z,100416.00
2018-09-30T10:13:10.984Z,100411.00
2018-09-30T10:18:14.065Z,100402.00
2018-09-30T10:23:17.143Z,100393.00
2018-09-30T10:28:20.166Z,100388.00
2018-09-30T10:33:23.163Z,100383.00
2018-09-30T10:38:26.263Z,100379.00
2018-09-30T10:43:29.302Z,100370.00
2018-09-30T10:48:32.756Z,100373.00
2018-09-30T10:53:35.973Z,100368.00
2018-09-30T10:58:39.128Z,100354.00
2018-09-30T11:09:27.534Z,100343.00
2018-09-30T11:14:30.582Z,100335.00
2018-09-30T11:19:33.724Z,100341.00
2018-09-30T11:24:36.826Z,100323.00
2018-09-30T11:29:39.855Z,100313.00
2018-09-30T11:34:43.035Z,100296.00
2018-09-30T11:39:46.164Z,100283.00
2018-09-30T11:44:49.604Z,100285.00
2018-09-30T11:49:52.810Z,100270.00
2018-09-30T11:54:55.842Z,100262.00
2018-09-30T11:59:58.864Z,100267.00
2018-09-30T12:05:01.949Z,100279.00
2018-09-30T12:10:05.103Z,100265.00
2018-09-30T12:15:08.772Z,100255.00
2018-09-30T12:20:11.832Z,100234.00
2018-09-30T12:25:14.895Z,100227.00
2018-09-30T12:30:17.993Z,100226.00
2018-09-30T12:35:21.053Z,100215.00
2018-09-30T12:40:24.155Z,100208.00
2018-09-30T12:45:27.378Z,100212.00
2018-09-30T12:50:30.566Z,100205.00
2018-09-30T12:55:33.648Z,100194.00
2018-09-30T13:00:36.699Z,100176.00
2018-09-30T13:05:39.873Z,100177.00
2018-09-30T13:10:42.920Z,100176.00
2018-09-30T13:15:45.972Z,100177.00
2018-09-30T13:20:49.044Z,100171.00
2018-09-30T13:25:52.232Z,100166.00
2018-09-30T13:30:55.562Z,100167.00
2018-09-30T13:35:58.802Z,100157.00
2018-09-30T13:41:02.058Z,100150.00
2018-09-30T13:46:05.292Z,100141.00
2018-09-30T13:51:08.395Z,100133.00
2018-09-30T13:56:11.575Z,100130.00
2018-09-30T14:01:14.586Z,100135.00
2018-09-30T14:06:17.596Z,100143.00
2018-09-30T14:11:20.663Z,100125.00
2018-09-30T14:16:23.697Z,100123.00
2018-09-30T14:21:26.731Z,100120.00
2018-09-30T14:26:29.839Z,100109.00
2018-09-30T14:31:32.867Z,100103.00
2018-09-30T14:36:36.035Z,100096.00
2018-09-30T14:41:39.201Z,100097.00
2018-09-30T14:46:42.350Z,100084.00
2018-09-30T14:51:45.387Z,100082.00
2018-09-30T14:56:48.427Z,100082.00
2018-09-30T15:01:51.480Z,100068.00
2018-09-30T15:06:54.715Z,100069.00
2018-09-30T15:11:57.853Z,100059.00
2018-09-30T15:17:00.899Z,100049.00
2018-09-30T15:22:04.698Z,100043.00
2018-09-30T15:27:07.764Z,100039.00
2018-09-30T15:32:10.770Z,100031.00
2018-09-30T15:37:13.819Z,100030.00
2018-09-30T15:42:17.060Z,100030.00
2018-09-30T15:47:20.444Z,100022.00
2018-09-30T15:52:23.525Z,100009.00
2018-09-30T15:57:26.636Z,100009.00
2018-09-30T16:02:29.657Z,99994.00
2018-09-30T16:07:32.746Z,99998.00
2018-09-30T16:12:35.791Z,99992.00
2018-09-30T16:17:38.927Z,99995.00
2018-09-30T16:22:42.018Z,99989.00
2018-09-30T16:27:45.165Z,99982.00
2018-09-30T16:32:48.178Z,99980.00
2018-09-30T16:37:51.209Z,99977.00
2018-09-30T16:42:54.224Z,99978.00
2018-09-30T16:47:57.384Z,99973.00
2018-09-30T16:53:00.520Z,99982.00
2018-09-30T16:58:03.599Z,99973.00
2018-09-30T17:03:06.945Z,99976.00
2018-09-30T17:08:10.033Z,99970.00
2018-09-30T17:13:13.100Z,99970.00
2018-09-30T17:18:16.150Z,99958.00
2018-09-30T17:23:19.354Z,99959.00
2018-09-30T17:28:22.611Z,99961.00
2018-09-30T17:33:25.724Z,99967.00
2018-09-30T17:38:28.835Z,99960.00
2018-09-30T17:43:32.030Z,99964.00
2018-09-30T17:48:35.040Z,99964.00
2018-09-30T17:53:38.114Z,99959.00
2018-09-30T17:58:41.212Z,99960.00
2018-09-30T18:03:44.243Z,99963.00
2018-09-30T18:08:47.432Z,99963.00
2018-09-30T18:13:50.408Z,99954.00
2018-09-30T18:18:53.397Z,99953.00
2018-09-30T18:23:56.789Z,99959.00
2018-09-30T18:28:59.847Z,99954.00
2018-09-30T18:34:02.783Z,99952.00
2018-09-30T18:39:09.090Z,99956.00
2018-09-30T18:44:12.311Z,99952.00
2018-09-30T18:49:15.754Z,99957.00
2018-09-30T18:54:19.232Z,99961.00
2018-09-30T18:59:22.644Z,99952.00
2018-09-30T19:04:26.059Z,99957.00
2018-09-30T19:09:29.473Z,99960.00
2018-09-30T19:14:33.088Z,99955.00
2018-09-30T19:19:36.505Z,99961.00
2018-09-30T19:24:39.683Z,99953.00
2018-09-30T19:29:42.631Z,99947.00
2018-09-30T19:34:45.581Z,99950.00
2018-09-30T19:39:48.552Z,99947.00
2018-09-30T19:44:51.880Z,99947.00
2018-09-30T19:49:55.100Z,99950.00
2018-09-30T19:54:58.320Z,99944.00
2018-09-30T20:00:04.156Z,99949.00
2018-09-30T20:05:07.220Z,99945.00
2018-09-30T20:10:10.331Z,99948.00
2018-09-30T20:15:13.375Z,99932.00
2018-09-30T20:20:16.560Z,99924.00
2018-09-30T20:25:19.697Z,99922.00
2018-09-30T20:30:22.966Z,99920.00
2018-09-30T20:35:25.983Z,99923.00
2018-09-30T20:40:29.012Z,99941.00
2018-09-30T20:45:32.117Z,99928.00
2018-09-30T20:50:35.248Z,99944.00
2018-09-30T20:55:38.296Z,99935.00
2018-09-30T21:00:41.329Z,99933.00
2018-09-30T21:06:48.727Z,99935.00
2018-09-30T21:11:51.734Z,99935.00
2018-09-30T21:16:54.795Z,99938.00
2018-09-30T21:21:57.808Z,99933.00
2018-09-30T21:27:02.161Z,99938.00
2018-09-30T21:32:06.032Z,99934.00
2018-09-30T21:37:09.138Z,99943.00
2018-09-30T21:42:12.167Z,99936.00
2018-09-30T21:47:15.309Z,99939.00
2018-09-30T21:52:18.379Z,99935.00
2018-09-30T21:57:21.376Z,99933.00
2018-09-30T22:02:24.445Z,99932.00
2018-09-30T22:07:27.422Z,99920.00
2018-09-30T22:12:30.463Z,99912.00
2018-09-30T22:17:33.596Z,99922.00
2018-09-30T22:22:36.640Z,99910.00
2018-09-30T22:27:39.744Z,99902.00
2018-09-30T22:32:42.741Z,99899.00
2018-09-30T22:37:45.779Z,99902.00
2018-09-30T22:42:48.797Z,99908.00
2018-09-30T22:47:51.855Z,99920.00
2018-09-30T22:52:54.886Z,99920.00
2018-09-30T22:57:57.900Z,99923.00
2018-09-30T23:03:03.541Z,99921.00
2018-09-30T23:08:06.679Z,99920.00
2018-09-30T23:13:09.680Z,99922.00
2018-09-30T23:18:12.715Z,99921.00
2018-09-30T23:23:15.726Z,99925.00
2018-09-30T23:28:18.752Z,99927.00
2018-09-30T23:33:21.801Z,99928.00
2018-09-30T23:38:25.593Z,99929.00
2018-09-30T23:43:28.764Z,99926.00
2018-09-30T23:48:31.918Z,99925.00
2018-09-30T23:53:35.933Z,99923.00
2018-09-30T23:58:39.008Z,99921.00
